Aeroporto :
LOGIN :

Iscrizione | Disclaimer

   EN    FR    IT 

 










Sommario :    VFR   VFR Marginale   IFR   IFR Intensivo   IFR Molto Intensivo
Visibilità : 
Base nubi : 
>= 8 km
>= 3000ft
5 / 8 km
1000 / 3000 ft
1500m / 5 km
500 / 1000 ft
800 / 1500m
200 / 500 ft
< 800m
< 200 ft
Simboli :   Temporali  Nebbia  Neve Forte  Precipitazioni Forti  Vento > 20 kt
SIGMETs :   Varie  Temporali  Ghiacco  Turbolenza  Onda orograficha  Ceneri Vulcaniche







- Altitudine del aeroporto : 41 ft


LIRE - Pratica di Mare Air Base Pomezia

ULTIMO METAR :
  • 130055Z 03007KT 9999 FEW030 BKN040 08/03 Q1015 RMK OVC VIS MIN 9999 WIND THR13 04004KT WIND THR31 /////KT BLU

METARs OBSOLETI :
  • 122355Z VRB01KT 9999 FEW030 SCT050 BKN060 10/03 Q1015 RMK OVC VIS MIN 9999 WIND THR13 33002KT WIND THR31 /////KT BLU
  • 122255Z 06006KT 9999 FEW040 OVC060 10/02 Q1016 RMK OVC VIS MIN 9999 WIND THR13 08007KT WIND THR31 /////KT BLU

TAF TAF LIRE
Valido dal 13 a 00 ore il 13 a 09 ore UTC


122300Z 1300/1309 04007KT 9999 FEW030 BKN060
TEMPO 1303/1309 RA BKN020
Nessun NOTAM noto per questo aeroporto.



MetMap, La meteo Aeronautica in un colpo d'occhio ! - Copyright ORBIFLY Dicembre 2007 - Disclaimer

ORBIFLY MET'MAP TEAM :

Programmazione e sviluppo : Alexandra Zaïnal
Concezione e sviluppo : Baudouin d'Aumeries
Co-Programmazione e sviluppo : Marc-Olivier Méhu
Supporto tecnico e logistico : Manuel Goepfert
Aiuto per la traduzione : Arnaldo La Scala

Contatto : metmap@orbifly.com




FONTI E CREDITI :

   NOAA